Time;durP1;ratioP1;P1;durP2;ratioP2;P2;SDS_P1;SDS_P2;PMS_P1;PMS_P2;Temp;Humidity;BMP_temperature;BMP_pressure;BME280_temperature;BME280_humidity;BME280_pressure;Samples;Min_cycle;Max_cycle;Signal;HPM_P1;HPM_P2
2023/01/28 00:01:16;;;;;;;8.15;3.00;;;;;;;-3.25;87.83;102076.09;5071358;28;20151;-66
2023/01/28 00:03:42;;;;;;;9.07;3.17;;;;;;;-3.29;88.62;102081.44;5070746;28;20137;-65
2023/01/28 00:06:13;;;;;;;13.40;3.58;;;;;;;-3.37;89.06;102078.16;5072553;28;20416;-66
2023/01/28 00:08:40;;;;;;;9.95;3.50;;;;;;;-3.41;89.04;102081.75;5072895;28;20052;-65
2023/01/28 00:11:10;;;;;;;10.80;2.80;;;;;;;-3.36;89.05;102076.38;5073591;28;20416;-66
2023/01/28 00:13:37;;;;;;;11.48;3.65;;;;;;;-3.36;89.87;102081.63;5075200;28;20044;-67
2023/01/28 00:16:09;;;;;;;10.35;3.63;;;;;;;-3.47;90.17;102081.03;5073594;28;20124;-66
2023/01/28 00:18:36;;;;;;;11.30;3.92;;;;;;;-3.50;90.58;102076.72;5073105;28;20133;-63
2023/01/28 00:21:09;;;;;;;10.00;3.17;;;;;;;-3.49;90.37;102083.69;5094261;28;20033;-62
2023/01/28 00:23:37;;;;;;;9.30;3.53;;;;;;;-3.51;91.31;102080.25;5095517;28;20052;-63
2023/01/28 00:26:11;;;;;;;11.02;3.53;;;;;;;-3.53;91.40;102082.88;5095261;28;20107;-62
2023/01/28 00:28:38;;;;;;;12.55;4.03;;;;;;;-3.55;91.35;102089.94;5095167;28;20040;-69
2023/01/28 00:31:06;;;;;;;10.02;3.50;;;;;;;-3.55;91.43;102092.56;5105302;28;20047;-63
2023/01/28 00:33:33;;;;;;;13.57;4.18;;;;;;;-3.61;92.50;102084.84;5116327;28;20064;-63
2023/01/28 00:36:00;;;;;;;10.27;3.75;;;;;;;-3.57;92.73;102094.34;5116757;28;20100;-63
2023/01/28 00:38:28;;;;;;;9.95;3.55;;;;;;;-3.61;93.11;102089.22;5115476;28;20051;-64
2023/01/28 00:40:54;;;;;;;9.77;3.70;;;;;;;-3.64;93.34;102092.78;5117114;28;20048;-65
2023/01/28 00:43:21;;;;;;;15.13;3.70;;;;;;;-3.68;93.28;102087.66;5116388;28;20048;-64
2023/01/28 00:45:47;;;;;;;16.98;3.65;;;;;;;-3.73;93.37;102089.50;5114767;28;20062;-66
2023/01/28 00:48:15;;;;;;;13.57;3.95;;;;;;;-3.67;93.20;102094.59;5115151;28;20054;-64
2023/01/28 00:50:44;;;;;;;12.32;3.78;;;;;;;-3.72;93.34;102091.22;5113410;28;20111;-66
2023/01/28 00:53:10;;;;;;;16.98;3.60;;;;;;;-3.69;93.02;102101.63;5114469;28;20108;-64
2023/01/28 00:55:37;;;;;;;9.02;3.67;;;;;;;-3.70;93.24;102099.91;5115977;28;20100;-63
2023/01/28 00:58:04;;;;;;;9.65;3.88;;;;;;;-3.66;92.63;102101.56;5113923;28;20044;-63
2023/01/28 01:00:31;;;;;;;13.80;3.63;;;;;;;-3.73;92.64;102102.59;5101564;28;20048;-65
2023/01/28 01:02:58;;;;;;;10.52;4.22;;;;;;;-3.68;91.93;102108.63;5092869;28;20154;-65
2023/01/28 01:05:24;;;;;;;13.63;3.72;;;;;;;-3.75;92.63;102112.28;5092747;28;20134;-65
2023/01/28 01:07:51;;;;;;;11.35;3.85;;;;;;;-3.78;93.16;102114.06;5093099;28;20054;-65
2023/01/28 01:10:18;;;;;;;15.30;3.72;;;;;;;-3.80;92.81;102105.34;5091074;28;20052;-66
2023/01/28 01:12:47;;;;;;;12.07;3.60;;;;;;;-3.87;92.54;102103.75;5091845;28;20411;-65
2023/01/28 01:15:14;;;;;;;16.83;4.47;;;;;;;-3.77;92.96;102105.28;5091765;28;20054;-65
2023/01/28 01:17:45;;;;;;;11.10;3.45;;;;;;;-3.82;92.63;102106.31;5092847;28;20100;-66
2023/01/28 01:20:17;;;;;;;8.82;3.30;;;;;;;-3.78;93.29;102103.56;5092612;28;20123;-67
2023/01/28 01:22:44;;;;;;;9.05;3.15;;;;;;;-3.79;93.47;102101.84;5074904;28;20052;-67
2023/01/28 01:25:13;;;;;;;10.68;3.47;;;;;;;-3.74;92.68;102099.13;5091034;28;20121;-65
2023/01/28 01:27:40;;;;;;;11.18;4.05;;;;;;;-3.75;93.27;102101.78;5090765;28;20052;-65
2023/01/28 01:30:08;;;;;;;12.85;3.92;;;;;;;-3.71;93.20;102106.06;5093134;28;20048;-65
2023/01/28 01:32:35;;;;;;;10.02;4.00;;;;;;;-3.71;93.22;102103.44;5072924;28;20131;-65
2023/01/28 01:35:04;;;;;;;11.70;3.92;;;;;;;-3.68;92.68;102106.00;5071021;28;20102;-65
2023/01/28 01:37:31;;;;;;;8.25;3.15;;;;;;;-3.67;93.01;102110.34;5071091;28;20040;-65
2023/01/28 01:39:58;;;;;;;11.65;3.50;;;;;;;-3.63;92.35;102104.97;5069589;28;20041;-65
2023/01/28 01:42:24;;;;;;;12.25;3.70;;;;;;;-3.64;92.02;102103.25;5069078;28;20503;-65
2023/01/28 01:44:54;;;;;;;12.50;3.67;;;;;;;-3.62;91.89;102113.72;5070227;28;20511;-65
2023/01/28 01:47:37;;;;;;;10.93;3.45;;;;;;;-3.58;91.17;102110.16;5071093;28;20048;-66
2023/01/28 01:50:22;;;;;;;7.15;3.22;;;;;;;-3.59;91.55;102117.13;5070266;28;20083;-65
2023/01/28 01:52:52;;;;;;;11.55;3.47;;;;;;;-3.57;91.58;102122.34;5071417;28;20058;-72
2023/01/28 01:55:22;;;;;;;8.65;2.92;;;;;;;-3.49;91.18;102124.78;5070598;28;20127;-66
2023/01/28 01:57:53;;;;;;;9.30;3.03;;;;;;;-3.55;91.35;102124.06;5070168;28;20048;-68
2023/01/28 02:00:19;;;;;;;10.93;3.50;;;;;;;-3.48;91.40;102119.53;5071314;28;20047;-64
2023/01/28 02:02:48;;;;;;;9.88;3.10;;;;;;;-3.54;90.50;102109.16;5070271;28;20052;-66
2023/01/28 02:09:02;;;;;;;10.32;3.15;;;;;;;-3.50;90.03;102123.94;5069358;28;20043;-65
2023/01/28 02:11:33;;;;;;;9.15;2.88;;;;;;;-3.52;89.68;102117.84;5071392;28;20052;-65
2023/01/28 02:14:03;;;;;;;7.00;3.15;;;;;;;-3.42;89.45;102111.50;5070719;28;20127;-65
2023/01/28 02:16:31;;;;;;;10.23;3.38;;;;;;;-3.46;89.25;102115.09;5071921;28;20055;-65
2023/01/28 02:18:58;;;;;;;12.05;3.70;;;;;;;-3.42;90.01;102119.34;5071228;28;20071;-65
2023/01/28 02:21:47;;;;;;;9.25;3.65;;;;;;;-3.36;88.66;102118.38;5071314;28;20041;-65
2023/01/28 02:24:54;;;;;;;14.18;3.28;;;;;;;-3.27;88.08;102112.91;5053231;28;20045;-65
2023/01/28 02:27:44;;;;;;;13.88;3.95;;;;;;;-3.37;88.89;102112.25;5033408;28;20044;-65
2023/01/28 02:30:28;;;;;;;6.70;2.83;;;;;;;-3.37;88.48;102120.13;5071604;28;20036;-65
2023/01/28 02:32:59;;;;;;;12.50;3.20;;;;;;;-3.38;88.50;102117.53;5090393;28;20151;-65
2023/01/28 02:35:52;;;;;;;11.38;3.55;;;;;;;-3.35;88.09;102122.69;5090348;28;20051;-65
2023/01/28 02:38:35;;;;;;;9.55;3.75;;;;;;;-3.38;87.61;102110.50;5085561;28;20050;-65
2023/01/28 02:41:10;;;;;;;6.63;2.63;;;;;;;-3.33;87.17;102115.66;5090405;28;20048;-64
2023/01/28 02:43:40;;;;;;;8.48;3.03;;;;;;;-3.37;87.13;102112.25;5072614;28;20044;-65
2023/01/28 02:48:58;;;;;;;8.48;2.40;;;;;;;-3.24;85.79;102118.06;5089967;28;20127;-65
2023/01/28 02:51:39;;;;;;;8.77;2.70;;;;;;;-3.30;85.28;102116.47;5089937;28;20059;-66
2023/01/28 02:54:17;;;;;;;12.10;3.28;;;;;;;-3.33;85.97;102119.16;5090683;28;20130;-65
2023/01/28 02:56:59;;;;;;;12.20;3.03;;;;;;;-3.29;85.89;102112.94;5089258;28;20070;-65
2023/01/28 02:59:31;;;;;;;7.50;2.80;;;;;;;-3.30;86.03;102121.72;5090340;28;20052;-66
2023/01/28 03:02:11;;;;;;;8.70;2.90;;;;;;;-3.29;85.40;102118.19;5089902;28;20052;-66
2023/01/28 03:04:46;;;;;;;7.18;2.92;;;;;;;-3.27;85.77;102120.78;5089921;28;20089;-66
2023/01/28 03:07:15;;;;;;;10.35;3.33;;;;;;;-3.26;85.37;102117.25;5088794;28;20480;-66
2023/01/28 03:09:45;;;;;;;10.23;3.00;;;;;;;-3.21;84.90;102115.34;5089707;28;20048;-66
2023/01/28 03:38:32;;;;;;;8.43;2.88;;;;;;;-3.18;84.13;102120.53;5089193;28;20117;-66
2023/01/28 03:41:01;;;;;;;8.98;2.85;;;;;;;-3.19;84.78;102120.59;5089418;28;20496;-66
2023/01/28 03:43:29;;;;;;;7.40;3.55;;;;;;;-3.19;85.05;102117.97;5089605;28;20044;-65
2023/01/28 03:45:56;;;;;;;9.85;3.05;;;;;;;-3.17;84.08;102114.41;5090173;28;20086;-65
2023/01/28 03:48:25;;;;;;;9.77;2.97;;;;;;;-3.16;84.19;102120.53;5089303;28;20127;-65
2023/01/28 03:50:53;;;;;;;9.77;2.90;;;;;;;-3.06;82.78;102114.13;5078843;28;20048;-65
2023/01/28 03:53:22;;;;;;;14.63;3.50;;;;;;;-3.20;83.70;102117.09;5088977;28;20048;-65
2023/01/28 03:55:50;;;;;;;6.10;2.63;;;;;;;-3.16;82.86;102117.88;5089554;28;20338;-64
2023/01/28 03:58:18;;;;;;;6.32;2.92;;;;;;;-3.23;83.02;102116.31;5089137;28;20040;-66
2023/01/28 04:00:44;;;;;;;8.18;2.95;;;;;;;-3.18;81.62;102114.44;5090005;28;20112;-65
2023/01/28 04:03:16;;;;;;;8.60;2.75;;;;;;;-3.16;81.38;102120.53;5088592;28;20054;-65
2023/01/28 04:05:43;;;;;;;9.57;2.47;;;;;;;-3.14;80.51;102114.31;5088100;28;20139;-65
2023/01/28 04:08:11;;;;;;;6.65;2.65;;;;;;;-3.20;81.42;102111.84;5091828;28;20135;-66
2023/01/28 04:10:39;;;;;;;7.07;2.63;;;;;;;-3.19;79.22;102120.59;5092938;28;20054;-65
2023/01/28 04:13:06;;;;;;;8.60;2.58;;;;;;;-3.22;79.36;102116.25;5092979;28;20052;-65
2023/01/28 04:15:34;;;;;;;7.07;2.67;;;;;;;-3.17;78.20;102117.03;5093282;28;20055;-65
2023/01/28 04:18:01;;;;;;;5.80;2.20;;;;;;;-3.28;76.76;102124.28;5093072;28;20054;-64
2023/01/28 04:20:27;;;;;;;5.50;2.03;;;;;;;-3.19;76.43;102120.59;5092905;28;20040;-65
2023/01/28 04:22:54;;;;;;;6.35;2.30;;;;;;;-3.21;74.23;102119.75;5092849;28;20414;-65
2023/01/28 04:25:20;;;;;;;3.63;1.73;;;;;;;-3.19;74.08;102128.47;5093057;28;20043;-65
2023/01/28 04:27:47;;;;;;;5.90;2.03;;;;;;;-3.13;72.84;102125.69;5074792;28;20074;-65
2023/01/28 04:30:13;;;;;;;5.13;1.92;;;;;;;-3.17;72.67;102126.63;5093301;28;20074;-65
2023/01/28 04:32:40;;;;;;;5.97;2.33;;;;;;;-3.15;71.63;102124.84;5093063;28;20400;-65
2023/01/28 04:35:07;;;;;;;4.55;2.08;;;;;;;-3.13;72.10;102133.56;5092730;28;20054;-65
2023/01/28 04:37:33;;;;;;;4.18;1.73;;;;;;;-3.15;71.49;102124.84;5092661;28;20131;-65
2023/01/28 04:40:00;;;;;;;6.45;1.77;;;;;;;-3.18;71.03;102135.44;5092271;28;20058;-65
2023/01/28 04:42:26;;;;;;;7.18;2.28;;;;;;;-3.15;71.19;102132.72;5092877;28;20553;-65
2023/01/28 04:44:53;;;;;;;4.63;2.13;;;;;;;-3.23;71.40;102126.81;5093535;28;20169;-65
2023/01/28 04:47:19;;;;;;;5.13;1.80;;;;;;;-3.17;70.46;102127.53;5092486;28;20571;-65
2023/01/28 04:49:46;;;;;;;6.70;2.10;;;;;;;-3.16;70.04;102128.38;5093640;28;20052;-65
2023/01/28 04:52:12;;;;;;;5.05;1.80;;;;;;;-3.17;70.83;102131.88;5093882;28;20126;-65
2023/01/28 04:54:39;;;;;;;11.25;1.95;;;;;;;-3.12;69.89;102119.53;5092810;28;20050;-66
2023/01/28 04:57:06;;;;;;;8.70;1.67;;;;;;;-3.10;69.29;102117.72;5093417;28;20056;-65
2023/01/28 04:59:32;;;;;;;4.80;1.52;;;;;;;-3.14;69.69;102116.06;5092506;28;20135;-65
2023/01/28 05:01:59;;;;;;;7.85;1.90;;;;;;;-3.19;70.32;102125.84;5092429;28;20044;-64
2023/01/28 05:04:25;;;;;;;3.33;1.50;;;;;;;-3.13;70.67;102125.69;5092478;28;20054;-65
2023/01/28 05:06:52;;;;;;;6.00;2.05;;;;;;;-3.02;68.62;102125.44;5092960;28;20052;-65
2023/01/28 05:09:18;;;;;;;9.68;2.15;;;;;;;-3.07;68.50;102128.16;5094413;28;20048;-64
2023/01/28 05:11:45;;;;;;;4.57;1.65;;;;;;;-3.02;67.57;102134.16;5094591;28;20048;-64
2023/01/28 05:14:11;;;;;;;5.65;1.63;;;;;;;-3.12;68.58;102132.66;5094833;28;20051;-64
2023/01/28 05:16:38;;;;;;;4.93;1.92;;;;;;;-3.09;68.65;102145.72;5094531;28;20097;-64
2023/01/28 05:19:04;;;;;;;6.45;1.55;;;;;;;-3.04;67.63;102143.81;5092669;28;20076;-64
2023/01/28 05:21:30;;;;;;;4.22;1.70;;;;;;;-3.14;68.07;102145.81;5093927;28;20190;-64
2023/01/28 05:23:57;;;;;;;8.15;1.88;;;;;;;-3.08;68.06;102152.69;5093890;28;20359;-64
2023/01/28 05:26:24;;;;;;;4.28;1.73;;;;;;;-3.01;67.17;102159.50;5094111;28;20534;-64
2023/01/28 05:28:50;;;;;;;7.00;2.20;;;;;;;-3.08;68.09;102152.69;5093803;28;20048;-64
2023/01/28 05:31:17;;;;;;;9.65;2.33;;;;;;;-3.12;68.62;102149.28;5094131;28;20047;-65
2023/01/28 05:33:43;;;;;;;5.05;1.95;;;;;;;-3.11;68.03;102148.34;5093981;28;20044;-64
2023/01/28 05:36:10;;;;;;;4.40;1.70;;;;;;;-3.04;67.54;102154.31;5093146;28;20480;-64
2023/01/28 05:38:36;;;;;;;8.80;2.13;;;;;;;-3.10;67.67;102146.59;5092893;28;20048;-64
2023/01/28 05:41:03;;;;;;;7.50;2.70;;;;;;;-3.06;68.34;102150.91;5093785;28;20052;-65
2023/01/28 05:43:31;;;;;;;8.50;2.45;;;;;;;-3.05;67.91;102149.97;5093511;28;20487;-64
2023/01/28 05:45:57;;;;;;;7.50;2.97;;;;;;;-3.07;67.70;102147.38;5094318;28;20052;-64
2023/01/28 05:48:24;;;;;;;7.47;2.15;;;;;;;-2.99;67.18;102141.09;5093972;28;20055;-64
2023/01/28 05:50:51;;;;;;;6.82;2.72;;;;;;;-2.96;66.87;102143.63;5093400;28;20400;-65
2023/01/28 05:53:17;;;;;;;8.77;3.67;;;;;;;-3.05;66.97;102145.59;5096256;28;20048;-64
2023/01/28 05:55:48;;;;;;;5.20;2.97;;;;;;;-3.04;67.45;102146.44;5094783;28;20074;-64
2023/01/28 05:58:14;;;;;;;11.20;5.25;;;;;;;-2.95;67.22;102153.25;5095470;28;20051;-64
2023/01/28 06:00:41;;;;;;;14.27;5.50;;;;;;;-3.02;67.90;102154.31;5094837;28;20044;-64
2023/01/28 06:03:07;;;;;;;14.80;6.82;;;;;;;-3.03;67.78;102150.81;5095060;28;20427;-65
2023/01/28 06:05:34;;;;;;;14.43;7.18;;;;;;;-3.01;67.25;102149.00;5094557;28;20412;-64
2023/01/28 06:08:00;;;;;;;10.65;6.03;;;;;;;-2.86;67.58;102156.53;5094512;28;20052;-64
2023/01/28 06:10:27;;;;;;;19.63;7.80;;;;;;;-2.97;67.39;102145.41;5094320;28;20044;-64
2023/01/28 06:12:53;;;;;;;25.42;9.20;;;;;;;-3.00;68.03;102144.59;5094731;28;20049;-64
2023/01/28 06:15:20;;;;;;;19.08;9.18;;;;;;;-2.99;67.50;102154.22;5094946;28;20055;-65
2023/01/28 06:17:46;;;;;;;19.88;10.00;;;;;;;-2.95;67.20;102153.25;5094317;28;20044;-65
2023/01/28 06:20:13;;;;;;;29.75;11.65;;;;;;;-2.97;67.35;102157.66;5094763;28;20487;-64
2023/01/28 06:22:40;;;;;;;22.55;10.55;;;;;;;-2.94;67.77;102154.97;5095369;28;20044;-65
2023/01/28 06:25:07;;;;;;;21.77;10.32;;;;;;;-2.94;67.48;102155.81;5097493;28;20052;-65
2023/01/28 06:27:34;;;;;;;23.10;10.60;;;;;;;-2.93;67.10;102151.44;5097862;28;20112;-64
2023/01/28 06:30:00;;;;;;;21.77;11.00;;;;;;;-2.92;67.45;102164.53;5098066;28;20040;-65
2023/01/28 06:32:27;;;;;;;23.15;11.07;;;;;;;-2.83;66.72;102163.44;5097314;28;20051;-65
2023/01/28 06:34:54;;;;;;;18.25;10.20;;;;;;;-2.91;66.54;102157.53;5097804;28;20059;-65
2023/01/28 06:37:20;;;;;;;21.23;10.25;;;;;;;-2.97;66.84;102166.41;5097747;28;20104;-64
2023/01/28 06:39:47;;;;;;;22.48;10.23;;;;;;;-2.85;66.22;102158.22;5096155;28;20104;-64
2023/01/28 06:42:13;;;;;;;19.92;10.57;;;;;;;-2.93;66.86;102162.78;5094962;28;20048;-65
2023/01/28 06:44:40;;;;;;;21.00;10.27;;;;;;;-2.86;66.91;102172.28;5096038;28;20450;-64
2023/01/28 06:47:06;;;;;;;22.83;8.95;;;;;;;-2.89;66.63;102171.47;5095220;28;20044;-64
2023/01/28 06:49:32;;;;;;;12.48;6.40;;;;;;;-2.95;66.87;102169.88;5096338;28;20418;-65
2023/01/28 06:51:59;;;;;;;14.75;6.38;;;;;;;-3.06;66.39;102166.66;5096432;28;20050;-65
2023/01/28 06:54:25;;;;;;;12.30;6.72;;;;;;;-2.95;66.26;102172.50;5096142;28;20115;-65
2023/01/28 06:56:52;;;;;;;16.17;6.25;;;;;;;-2.87;66.48;102172.28;5096824;28;20048;-64
2023/01/28 06:59:18;;;;;;;12.85;6.10;;;;;;;-2.89;66.83;102169.72;5096507;28;20044;-64
2023/01/28 07:01:45;;;;;;;11.80;5.85;;;;;;;-2.87;66.56;102167.91;5096270;28;20048;-64
2023/01/28 07:04:12;;;;;;;9.90;4.68;;;;;;;-2.94;66.01;102174.22;5095122;28;20040;-65
2023/01/28 07:06:38;;;;;;;8.05;4.40;;;;;;;-2.92;66.28;102174.19;5094431;28;20044;-64
2023/01/28 07:09:04;;;;;;;9.07;3.70;;;;;;;-2.87;66.35;102180.16;5076632;28;20047;-64
2023/01/28 07:11:31;;;;;;;7.72;3.50;;;;;;;-2.87;65.38;102180.16;5096027;28;20047;-64
2023/01/28 07:13:58;;;;;;;11.25;4.18;;;;;;;-2.82;64.01;102179.16;5096827;28;20044;-64
2023/01/28 07:16:24;;;;;;;10.20;3.92;;;;;;;-2.85;64.32;102186.25;5094872;28;20131;-64
2023/01/28 07:18:51;;;;;;;10.77;4.78;;;;;;;-2.87;65.53;102180.16;5096912;28;20054;-64
2023/01/28 07:21:17;;;;;;;14.48;5.57;;;;;;;-2.75;64.34;102182.50;5095431;28;20056;-64
2023/01/28 07:23:43;;;;;;;11.80;5.70;;;;;;;-2.85;64.53;102181.88;5093153;28;20458;-64
2023/01/28 07:26:10;;;;;;;12.52;6.28;;;;;;;-2.86;64.25;102184.50;5092912;28;20047;-64
2023/01/28 07:28:37;;;;;;;12.45;6.03;;;;;;;-2.98;65.38;102185.69;5092394;28;20059;-65
2023/01/28 07:31:03;;;;;;;13.13;5.20;;;;;;;-2.89;65.75;102185.47;5084111;28;20046;-64
2023/01/28 07:33:30;;;;;;;12.63;4.80;;;;;;;-2.88;65.13;102184.56;5075249;28;20365;-64
2023/01/28 07:35:56;;;;;;;10.32;4.82;;;;;;;-2.89;65.08;102180.22;5069862;28;20383;-64
2023/01/28 07:38:23;;;;;;;8.32;2.85;;;;;;;-2.92;62.69;102176.81;5092704;28;20047;-65
2023/01/28 07:40:49;;;;;;;9.93;3.25;;;;;;;-2.92;62.68;102182.06;5091188;28;20044;-65
2023/01/28 07:43:16;;;;;;;8.88;3.33;;;;;;;-2.90;63.07;102177.63;5096856;28;20063;-66
2023/01/28 07:45:42;;;;;;;9.13;3.40;;;;;;;-2.87;63.58;102172.28;5097850;28;20067;-67
2023/01/28 07:48:11;;;;;;;7.60;3.65;;;;;;;-2.92;64.62;102175.03;5097347;28;20048;-66
2023/01/28 07:50:39;;;;;;;15.05;3.83;;;;;;;-2.89;64.79;102181.97;5097196;28;20393;-66
2023/01/28 07:53:08;;;;;;;8.50;3.95;;;;;;;-2.83;64.64;102182.69;5096927;28;20089;-66
2023/01/28 07:55:35;;;;;;;7.40;3.40;;;;;;;-2.81;64.54;102174.78;5095811;28;20420;-66
2023/01/28 07:58:04;;;;;;;4.95;2.55;;;;;;;-2.77;63.39;102178.19;5078112;28;20108;-66
2023/01/28 08:00:33;;;;;;;11.23;2.65;;;;;;;-2.75;63.50;102184.25;5096429;28;20127;-66
2023/01/28 08:03:02;;;;;;;9.80;2.63;;;;;;;-2.78;63.90;102176.47;5095958;28;20044;-66
2023/01/28 08:05:39;;;;;;;8.40;3.13;;;;;;;-2.74;64.07;102175.50;5096250;28;20059;-66
2023/01/28 08:08:10;;;;;;;10.07;2.95;;;;;;;-2.84;63.89;102187.97;5095028;28;20451;-67
2023/01/28 08:10:37;;;;;;;6.38;2.60;;;;;;;-2.85;64.01;102192.38;5095149;28;20048;-67
2023/01/28 08:13:04;;;;;;;11.82;3.50;;;;;;;-2.84;64.51;102196.72;5077934;28;20511;-67
2023/01/28 08:15:31;;;;;;;6.10;2.75;;;;;;;-2.78;63.95;102200.97;5095193;28;20048;-65
2023/01/28 08:18:00;;;;;;;5.55;2.80;;;;;;;-2.73;64.68;102191.19;5094557;28;20055;-65
2023/01/28 08:20:28;;;;;;;11.23;2.50;;;;;;;-2.68;64.52;102198.97;5095512;28;20040;-66
2023/01/28 08:23:15;;;;;;;7.45;2.58;;;;;;;-2.74;63.89;102202.59;5096691;28;20100;-66
2023/01/28 08:25:42;;;;;;;8.23;2.92;;;;;;;-2.68;64.39;102201.59;5095184;28;20107;-67
2023/01/28 08:28:09;;;;;;;5.85;2.35;;;;;;;-2.69;63.99;102210.38;5096065;28;20410;-65
2023/01/28 08:30:37;;;;;;;5.85;2.15;;;;;;;-2.64;64.16;102209.38;5095105;28;20054;-66
2023/01/28 08:33:06;;;;;;;9.30;2.78;;;;;;;-2.68;63.72;102215.59;5077809;28;20040;-65
2023/01/28 08:35:33;;;;;;;7.53;2.30;;;;;;;-2.59;63.44;102215.34;5095206;28;20040;-67
2023/01/28 08:38:01;;;;;;;8.40;2.20;;;;;;;-2.63;63.52;102223.34;5093854;28;20048;-66
2023/01/28 08:40:28;;;;;;;6.50;2.45;;;;;;;-2.58;66.04;102218.84;5096032;28;20056;-65
2023/01/28 08:42:55;;;;;;;6.53;2.42;;;;;;;-2.55;65.45;102233.66;5095931;28;20407;-66
2023/01/28 08:45:24;;;;;;;5.93;3.33;;;;;;;-2.54;62.73;102232.78;5096274;28;20048;-66
2023/01/28 08:47:58;;;;;;;9.32;3.03;;;;;;;-2.67;63.46;102229.59;5097748;28;20075;-65
2023/01/28 08:50:28;;;;;;;7.88;2.70;;;;;;;-2.60;62.31;102225.91;5097131;28;20052;-65
2023/01/28 08:52:56;;;;;;;12.20;3.40;;;;;;;-2.60;61.91;102233.78;5097651;28;20173;-65
2023/01/28 08:55:24;;;;;;;5.10;2.38;;;;;;;-2.74;60.96;102225.41;5097698;28;20048;-66
2023/01/28 08:57:51;;;;;;;5.88;2.53;;;;;;;-2.71;61.02;102233.19;5098131;28;20048;-66
2023/01/28 09:00:18;;;;;;;9.00;2.92;;;;;;;-2.69;61.67;102239.25;5099133;28;20077;-66
2023/01/28 09:02:45;;;;;;;10.63;3.53;;;;;;;-2.61;62.10;102242.59;5098236;28;20048;-65
2023/01/28 09:05:11;;;;;;;6.50;3.38;;;;;;;-2.62;62.44;102235.59;5099650;28;20040;-65
2023/01/28 09:07:38;;;;;;;6.43;2.85;;;;;;;-2.56;62.40;102230.19;5099195;28;20048;-65
2023/01/28 09:10:05;;;;;;;8.05;2.65;;;;;;;-2.48;61.86;102240.50;5097490;28;20071;-67
2023/01/28 09:12:32;;;;;;;3.30;2.05;;;;;;;-2.61;61.27;102248.69;5096723;28;20039;-65
2023/01/28 09:14:58;;;;;;;7.43;2.40;;;;;;;-2.50;62.02;102255.44;5098142;28;20044;-66
2023/01/28 09:17:25;;;;;;;6.43;2.00;;;;;;;-2.54;60.61;102257.28;5098038;28;20048;-65
2023/01/28 09:19:51;;;;;;;5.18;2.08;;;;;;;-2.53;59.77;102256.38;5100628;28;20044;-65
2023/01/28 09:22:18;;;;;;;9.52;1.95;;;;;;;-2.48;59.89;102258.88;5101170;28;20060;-65
2023/01/28 09:24:44;;;;;;;3.88;1.50;;;;;;;-2.65;60.41;102265.44;5101315;28;20103;-65
2023/01/28 09:27:11;;;;;;;7.63;2.08;;;;;;;-2.78;60.51;102263.16;5100174;28;20062;-66
2023/01/28 09:29:38;;;;;;;5.20;1.88;;;;;;;-2.73;60.93;102256.00;5100531;28;20056;-64
2023/01/28 09:32:06;;;;;;;9.77;2.33;;;;;;;-2.73;61.39;102266.50;5100137;28;20510;-66
2023/01/28 09:34:33;;;;;;;4.35;1.60;;;;;;;-2.76;61.06;102275.31;5100236;28;20058;-66
2023/01/28 09:37:00;;;;;;;6.72;1.50;;;;;;;-2.66;60.60;102271.56;5100245;28;20467;-64
2023/01/28 09:39:27;;;;;;;4.30;1.50;;;;;;;-2.66;60.46;102268.94;5100507;28;20135;-65
2023/01/28 09:41:59;;;;;;;6.68;1.63;;;;;;;-2.61;60.40;102276.75;5100710;28;20044;-64
2023/01/28 09:45:14;;;;;;;5.25;1.33;;;;;;;-2.55;60.81;102271.31;5100050;28;20042;-65
2023/01/28 09:47:53;;;;;;;3.60;1.50;;;;;;;-2.52;60.86;102275.63;5087194;28;20067;-67
2023/01/28 09:50:29;;;;;;;3.97;1.58;;;;;;;-2.52;60.88;102280.91;5100311;28;20047;-65
2023/01/28 09:53:03;;;;;;;4.25;1.67;;;;;;;-2.45;60.58;102275.44;5100439;28;20119;-65
2023/01/28 09:55:34;;;;;;;3.67;1.40;;;;;;;-2.49;61.68;102280.81;5084587;28;20060;-65
2023/01/28 09:58:01;;;;;;;5.10;1.70;;;;;;;-2.50;61.60;102273.84;5084551;28;20113;-65
2023/01/28 10:00:57;;;;;;;4.30;1.30;;;;;;;-2.31;61.10;102282.13;5084370;28;20131;-65
2023/01/28 10:03:31;;;;;;;5.63;1.23;;;;;;;-2.35;60.65;102292.72;5086330;28;20033;-64
2023/01/28 10:06:35;;;;;;;3.90;1.40;;;;;;;-2.33;61.59;102280.41;5085471;28;20040;-65
2023/01/28 10:09:16;;;;;;;6.70;1.50;;;;;;;-2.32;60.47;102278.63;5085435;28;20071;-66
2023/01/28 10:12:01;;;;;;;3.08;0.93;;;;;;;-2.21;60.53;102268.69;5085167;28;20048;-65
2023/01/28 10:14:34;;;;;;;6.57;1.17;;;;;;;-2.14;59.79;102270.25;5084990;28;20136;-65
2023/01/28 10:17:11;;;;;;;16.20;1.20;;;;;;;-2.11;59.66;102279.84;5083336;28;20037;-65
2023/01/28 10:20:16;;;;;;;3.10;1.27;;;;;;;-2.27;58.70;102263.59;5081945;28;20055;-67
2023/01/28 10:22:54;;;;;;;5.20;1.13;;;;;;;-2.36;59.57;102264.72;5082987;28;20112;-66
2023/01/28 10:25:27;;;;;;;5.00;0.77;;;;;;;-2.25;59.28;102266.19;5083037;28;20048;-67
2023/01/28 10:27:57;;;;;;;4.78;1.05;;;;;;;-2.22;60.03;102268.75;5082951;28;20040;-67
2023/01/28 10:30:32;;;;;;;1.88;0.98;;;;;;;-2.34;60.61;102267.28;5082554;28;20044;-67
2023/01/28 10:33:21;;;;;;;1.95;0.70;;;;;;;-2.25;61.16;102251.28;5082869;28;20048;-67
2023/01/28 10:35:48;;;;;;;3.17;1.50;;;;;;;-2.08;60.23;102249.97;5081744;28;20052;-65
2023/01/28 10:38:19;;;;;;;11.77;1.48;;;;;;;-2.14;61.57;102246.59;5081167;28;20514;-64
2023/01/28 10:40:49;;;;;;;5.88;0.75;;;;;;;-2.01;61.89;102247.13;5080793;28;20055;-66
2023/01/28 10:43:19;;;;;;;9.27;1.15;;;;;;;-2.04;61.32;102247.22;5079788;28;20147;-66
2023/01/28 10:46:03;;;;;;;5.35;1.10;;;;;;;-2.04;60.83;102249.00;5080834;28;20405;-66
2023/01/28 10:48:39;;;;;;;12.27;1.33;;;;;;;-2.08;61.11;102252.63;5082281;28;20155;-66
2023/01/28 10:51:05;;;;;;;4.45;0.70;;;;;;;-1.97;60.61;102240.03;5082079;28;20066;-66
2023/01/28 10:53:43;;;;;;;5.00;1.40;;;;;;;-1.92;60.64;102248.66;5083258;28;20052;-67
2023/01/28 10:56:31;;;;;;;5.80;1.67;;;;;;;-1.84;60.59;102251.09;5081006;28;20064;-65
2023/01/28 10:59:01;;;;;;;6.05;1.10;;;;;;;-1.88;61.16;102252.94;5097168;28;20108;-66
2023/01/28 11:01:39;;;;;;;2.92;0.70;;;;;;;-1.90;60.86;102245.06;5081107;28;20075;-65
2023/01/28 11:04:13;;;;;;;7.45;1.13;;;;;;;-1.93;60.79;102244.28;5086161;28;20040;-66
2023/01/28 11:06:40;;;;;;;10.57;1.10;;;;;;;-1.84;60.51;102253.72;5101970;28;20554;-67
2023/01/28 11:09:23;;;;;;;7.47;1.50;;;;;;;-1.95;61.07;102249.59;5102775;28;20048;-66
2023/01/28 11:11:50;;;;;;;9.68;1.13;;;;;;;-1.82;60.04;102249.25;5083780;28;20054;-67
2023/01/28 11:14:22;;;;;;;7.10;0.80;;;;;;;-1.74;59.96;102250.78;5101605;28;20114;-67
2023/01/28 11:16:51;;;;;;;9.73;1.00;;;;;;;-1.72;59.78;102241.06;5100714;28;20044;-67
2023/01/28 11:19:20;;;;;;;5.18;1.17;;;;;;;-1.74;60.41;102248.16;5099030;28;20090;-67
2023/01/28 11:21:53;;;;;;;5.18;1.23;;;;;;;-1.56;60.46;102238.00;5099156;28;20522;-66
2023/01/28 11:24:27;;;;;;;4.75;1.40;;;;;;;-1.80;61.28;102237.78;5101616;28;20448;-66
2023/01/28 11:26:56;;;;;;;11.00;1.77;;;;;;;-1.69;62.84;102240.97;5100892;28;20129;-66
2023/01/28 11:29:28;;;;;;;8.32;1.48;;;;;;;-1.51;62.78;102234.31;5102309;28;20101;-65
2023/01/28 11:31:55;;;;;;;6.30;1.55;;;;;;;-1.66;64.15;102240.03;5099169;28;20043;-66
2023/01/28 11:34:29;;;;;;;7.05;1.38;;;;;;;-1.53;63.86;102230.00;5099213;28;20046;-67
2023/01/28 11:37:11;;;;;;;2.90;1.50;;;;;;;-1.65;64.44;102220.69;5100174;28;20044;-65
2023/01/28 11:39:37;;;;;;;6.80;1.42;;;;;;;-1.58;64.46;102232.75;5099389;28;20040;-66
2023/01/28 11:42:15;;;;;;;4.75;1.30;;;;;;;-1.50;64.12;102225.53;5101709;28;20028;-65
2023/01/28 11:44:42;;;;;;;3.03;0.93;;;;;;;-1.64;64.38;102232.97;5100315;28;20116;-65
2023/01/28 11:47:29;;;;;;;6.55;1.38;;;;;;;-1.53;64.14;102222.13;5097136;28;20506;-66
2023/01/28 11:50:24;;;;;;;5.32;1.27;;;;;;;-1.67;64.57;102212.84;5097759;28;20058;-66
2023/01/28 11:53:05;;;;;;;5.93;1.10;;;;;;;-1.49;62.83;102213.22;5097539;28;20051;-65
2023/01/28 11:55:59;;;;;;;4.32;1.10;;;;;;;-1.69;64.09;102213.78;5098428;28;20044;-65
2023/01/28 11:58:34;;;;;;;5.30;1.40;;;;;;;-1.60;63.45;102213.53;5100335;28;20111;-65
2023/01/28 12:01:14;;;;;;;3.80;1.20;;;;;;;-1.62;63.42;102205.69;5082055;28;20071;-65
2023/01/28 12:03:53;;;;;;;4.13;1.20;;;;;;;-1.66;64.25;102206.69;5099708;28;20044;-65
2023/01/28 12:06:38;;;;;;;3.33;1.30;;;;;;;-1.71;63.99;102215.63;5102031;28;20044;-64
2023/01/28 12:09:11;;;;;;;4.47;1.20;;;;;;;-1.88;66.63;102202.97;5101529;28;20046;-66